Time;durP1;ratioP1;P1;durP2;ratioP2;P2;SDS_P1;SDS_P2;PMS_P1;PMS_P2;Temp;Humidity;BMP_temperature;BMP_pressure;BME280_temperature;BME280_humidity;BME280_pressure;Samples;Min_cycle;Max_cycle;Signal;HPM_P1;HPM_P2
2022/01/03 00:01:15;;;;;;;12.15;6.70;;;;;;;8.95;67.43;96113.37;1677010;85;20999;-80
2022/01/03 00:03:41;;;;;;;6.10;4.30;;;;;;;8.91;67.67;96108.20;1701764;83;21031;-80
2022/01/03 00:06:07;;;;;;;8.23;5.20;;;;;;;8.89;67.69;96105.80;1738869;82;21347;-80
2022/01/03 00:08:32;;;;;;;10.40;6.17;;;;;;;8.89;67.75;96095.44;1721139;82;20996;-80
2022/01/03 00:10:58;;;;;;;7.30;4.85;;;;;;;8.89;67.81;96090.25;1741363;82;20951;-80
2022/01/03 00:13:24;;;;;;;6.62;4.55;;;;;;;8.89;67.83;96107.58;1747682;82;21296;-80
2022/01/03 00:15:52;;;;;;;10.53;9.13;;;;;;;8.86;67.98;96085.43;1742920;81;20968;-80
2022/01/03 00:18:19;;;;;;;7.62;5.62;;;;;;;8.87;68.00;96081.05;1748170;82;20987;-80
2022/01/03 00:20:49;;;;;;;9.80;6.58;;;;;;;8.89;68.16;96076.49;1748041;82;20981;-80
2022/01/03 00:23:15;;;;;;;7.87;5.30;;;;;;;8.88;68.17;96071.00;1747445;82;20980;-79
2022/01/03 00:25:42;;;;;;;7.12;4.87;;;;;;;8.88;68.19;96073.59;1748382;82;21413;-80
2022/01/03 00:28:16;;;;;;;6.53;4.25;;;;;;;8.86;68.41;96072.47;1743925;81;20958;-80
2022/01/03 00:30:43;;;;;;;7.15;4.17;;;;;;;8.83;68.38;96079.31;1745143;82;20964;-80
2022/01/03 00:33:10;;;;;;;5.62;4.05;;;;;;;8.86;68.40;96090.61;1740463;82;20968;-80
2022/01/03 00:35:39;;;;;;;7.22;4.90;;;;;;;8.89;68.46;96086.85;1745833;82;21379;-80
2022/01/03 00:38:07;;;;;;;6.20;3.85;;;;;;;8.92;68.42;96093.77;1744790;82;21468;-80
2022/01/03 00:40:33;;;;;;;6.20;4.15;;;;;;;8.95;68.47;96084.37;1746346;82;21034;-80
2022/01/03 00:42:59;;;;;;;6.80;4.00;;;;;;;8.97;68.41;96080.30;1723538;82;21369;-80
2022/01/03 00:45:24;;;;;;;6.60;4.10;;;;;;;8.96;68.51;96066.55;1749039;82;20986;-80
2022/01/03 00:47:50;;;;;;;5.30;3.87;;;;;;;8.96;68.48;96074.31;1744203;82;21007;-80
2022/01/03 00:50:18;;;;;;;7.40;5.45;;;;;;;8.95;68.55;96064.13;1746135;82;21367;-80
2022/01/03 00:52:45;;;;;;;12.98;6.75;;;;;;;8.90;68.52;96065.95;1736683;82;21096;-80
2022/01/03 00:55:11;;;;;;;8.33;5.92;;;;;;;8.86;68.64;96072.47;1752421;82;20974;-80
2022/01/03 00:57:56;;;;;;;5.87;4.08;;;;;;;8.83;68.60;96061.17;1745143;82;21087;-80
2022/01/03 01:00:22;;;;;;;5.30;4.42;;;;;;;8.83;68.53;96063.77;1740279;82;21074;-80
2022/01/03 01:03:03;;;;;;;5.50;3.98;;;;;;;8.81;68.61;96069.63;1748906;82;21056;-80
2022/01/03 01:05:29;;;;;;;6.70;4.00;;;;;;;8.79;68.58;96063.82;1737952;82;20992;-80
2022/01/03 01:07:58;;;;;;;5.58;4.35;;;;;;;8.75;68.68;96064.33;1736172;82;21454;-80
2022/01/03 01:10:31;;;;;;;5.55;4.03;;;;;;;8.73;68.80;96068.39;1707711;82;20949;-80
2022/01/03 01:12:57;;;;;;;6.50;3.87;;;;;;;8.71;68.97;96066.48;1738205;82;20965;-80
2022/01/03 01:15:24;;;;;;;4.55;3.17;;;;;;;8.71;69.00;96058.70;1711170;82;20952;-80
2022/01/03 01:17:53;;;;;;;6.95;4.08;;;;;;;8.70;69.20;96057.09;1740499;82;21020;-80
2022/01/03 01:20:21;;;;;;;6.03;4.20;;;;;;;8.71;69.12;96056.11;1739039;82;21030;-80
2022/01/03 01:22:48;;;;;;;5.55;4.33;;;;;;;8.73;69.15;96048.97;1737416;82;21553;-80
2022/01/03 01:27:50;;;;;;;5.28;3.92;;;;;;;8.78;69.06;96042.75;1736667;82;20976;-80
2022/01/03 01:30:23;;;;;;;5.80;4.28;;;;;;;8.80;69.08;96055.06;1742722;82;21295;-80
2022/01/03 01:33:14;;;;;;;5.85;3.52;;;;;;;8.82;69.08;96042.73;1734939;82;21027;-81
2022/01/03 01:35:55;;;;;;;5.07;3.87;;;;;;;8.82;68.89;96036.75;1735872;82;20992;-82
2022/01/03 01:38:24;;;;;;;5.33;3.60;;;;;;;8.82;69.02;96029.78;1737433;82;21008;-81
2022/01/03 01:40:54;;;;;;;7.60;4.83;;;;;;;8.82;69.03;96024.59;1734775;82;21059;-81
2022/01/03 01:43:31;;;;;;;6.15;4.17;;;;;;;8.80;69.13;96020.58;1735617;82;21410;-81
2022/01/03 01:45:57;;;;;;;4.75;3.65;;;;;;;8.79;69.20;96021.56;1733810;82;21095;-81
2022/01/03 01:48:23;;;;;;;4.97;3.25;;;;;;;8.80;69.33;96020.09;1736785;82;21476;-81
2022/01/03 01:50:50;;;;;;;6.80;3.00;;;;;;;8.84;69.31;96012.75;1740419;82;21043;-82
2022/01/03 01:53:21;;;;;;;4.17;3.12;;;;;;;8.87;69.17;96008.02;1741363;82;21043;-81
2022/01/03 01:55:48;;;;;;;3.62;3.15;;;;;;;8.90;69.11;96011.53;1674468;85;21390;-81
2022/01/03 01:58:37;;;;;;;4.25;3.50;;;;;;;8.91;69.12;96017.02;1672629;84;21053;-81
2022/01/03 02:01:06;;;;;;;6.67;3.22;;;;;;;8.90;69.06;96012.83;1642393;85;21027;-81
2022/01/03 02:03:53;;;;;;;5.10;3.25;;;;;;;8.90;69.17;96002.47;1656248;85;20997;-82
2022/01/03 02:06:42;;;;;;;4.80;3.40;;;;;;;8.90;69.16;95995.98;1642636;85;20991;-81
2022/01/03 02:09:12;;;;;;;4.28;3.42;;;;;;;8.89;69.22;95993.09;1729948;81;21398;-81
2022/01/03 02:11:55;;;;;;;5.87;3.05;;;;;;;8.86;69.36;95993.45;1709509;81;20988;-82
2022/01/03 02:14:23;;;;;;;5.08;3.10;;;;;;;8.85;69.43;95987.96;1725874;81;20975;-81
2022/01/03 02:16:50;;;;;;;4.75;3.25;;;;;;;8.86;69.53;95990.86;1720452;81;21043;-82
2022/01/03 02:19:15;;;;;;;6.40;3.05;;;;;;;8.89;69.42;95976.73;1691328;81;21000;-82
2022/01/03 02:21:42;;;;;;;5.17;3.05;;;;;;;8.90;69.47;95971.86;1731006;81;20971;-82
2022/01/03 02:24:08;;;;;;;5.20;2.90;;;;;;;8.90;69.46;95965.39;1727768;81;21046;-82
2022/01/03 02:26:34;;;;;;;4.70;3.00;;;;;;;8.87;69.51;95956.20;1698780;81;20944;-81
2022/01/03 02:28:59;;;;;;;6.45;4.20;;;;;;;8.85;69.49;95956.88;1733613;81;20932;-81
2022/01/03 02:31:25;;;;;;;5.92;3.80;;;;;;;8.82;69.59;95952.06;1727217;81;21046;-81
2022/01/03 02:33:51;;;;;;;4.37;3.37;;;;;;;8.81;69.60;95938.80;1729366;81;20992;-82
2022/01/03 02:36:17;;;;;;;5.28;3.92;;;;;;;8.81;69.68;95944.47;1730929;81;21457;-81
2022/01/03 02:38:43;;;;;;;5.58;3.72;;;;;;;8.80;69.72;95946.75;1734258;81;21015;-81
2022/01/03 02:41:09;;;;;;;4.97;3.47;;;;;;;8.80;69.71;95937.69;1723606;81;21303;-82
2022/01/03 02:43:35;;;;;;;3.22;2.70;;;;;;;8.83;69.69;95945.09;1731185;81;21362;-81
2022/01/03 02:46:01;;;;;;;5.15;3.33;;;;;;;8.85;69.59;95934.05;1720824;81;21161;-81
2022/01/03 02:48:27;;;;;;;3.22;2.35;;;;;;;8.87;69.66;95935.47;1711050;81;21399;-81
2022/01/03 02:50:53;;;;;;;6.17;2.83;;;;;;;8.88;69.57;95933.68;1715676;81;21063;-81
2022/01/03 02:53:19;;;;;;;4.03;2.95;;;;;;;8.87;69.67;95929.48;1729105;81;21018;-81
2022/01/03 02:55:45;;;;;;;4.28;2.60;;;;;;;8.86;69.68;95931.77;1703084;81;20999;-82
2022/01/03 02:58:11;;;;;;;3.77;2.83;;;;;;;8.85;69.62;95937.44;1729526;81;21426;-81
2022/01/03 03:00:47;;;;;;;2.95;2.22;;;;;;;8.85;69.63;95930.97;1736821;81;21004;-81
2022/01/03 03:03:17;;;;;;;5.58;3.33;;;;;;;8.85;69.59;95928.87;1740861;81;21014;-82
2022/01/03 03:05:43;;;;;;;9.28;6.12;;;;;;;8.86;69.66;95928.69;1734242;81;21020;-81
2022/01/03 03:08:09;;;;;;;7.28;4.17;;;;;;;8.88;69.55;95928.50;1735366;81;21079;-82
2022/01/03 03:10:35;;;;;;;6.03;3.65;;;;;;;8.90;69.64;95928.63;1734431;81;20929;-81
2022/01/03 03:13:01;;;;;;;4.87;2.92;;;;;;;8.92;69.69;95921.47;1740407;81;21090;-81
2022/01/03 03:15:26;;;;;;;4.35;2.65;;;;;;;8.92;69.46;95917.58;1731731;81;21090;-81
2022/01/03 03:17:52;;;;;;;7.22;2.83;;;;;;;8.93;69.55;95928.25;1718234;81;21019;-81
2022/01/03 03:20:20;;;;;;;3.87;2.42;;;;;;;8.93;69.64;95917.09;1736101;81;21014;-81
2022/01/03 03:22:49;;;;;;;3.70;2.47;;;;;;;8.91;69.70;95921.66;1741529;81;20960;-81
2022/01/03 03:25:21;;;;;;;3.40;2.00;;;;;;;8.89;69.56;95921.84;1739341;81;21034;-81
2022/01/03 03:27:49;;;;;;;;;;;;;;;8.91;69.67;95909.99;1734855;81;21035;-81
2022/01/03 03:30:19;;;;;;;2.60;1.82;;;;;;;8.94;69.55;95909.63;1738069;81;20075;-81
2022/01/03 03:32:47;;;;;;;3.00;2.15;;;;;;;8.96;69.59;95915.45;1733793;81;21012;-81
2022/01/03 03:35:15;;;;;;;2.80;1.87;;;;;;;8.97;69.49;95904.09;1735288;81;21056;-82
2022/01/03 03:37:40;;;;;;;3.95;2.27;;;;;;;8.98;69.57;95894.05;1732155;81;21497;-81
2022/01/03 03:40:07;;;;;;;2.87;1.87;;;;;;;8.98;69.58;95901.32;1735664;81;20984;-81
2022/01/03 03:42:33;;;;;;;2.62;1.75;;;;;;;8.96;69.46;95890.83;1732341;81;21006;-81
2022/01/03 03:44:58;;;;;;;2.75;1.95;;;;;;;8.94;69.47;95888.89;1735454;81;21043;-81
2022/01/03 03:47:24;;;;;;;2.77;2.20;;;;;;;8.93;69.48;95892.47;1738123;81;20944;-81
2022/01/03 03:49:50;;;;;;;3.00;1.92;;;;;;;8.92;69.30;95888.28;1742554;81;20974;-81
2022/01/03 03:52:16;;;;;;;2.60;1.80;;;;;;;8.93;69.38;95884.20;1739839;81;21360;-81
2022/01/03 03:54:41;;;;;;;3.35;1.77;;;;;;;8.94;69.08;95887.10;1736709;81;20992;-81
2022/01/03 03:57:08;;;;;;;2.83;2.05;;;;;;;8.96;69.13;95889.05;1738786;81;21340;-81
2022/01/03 03:59:34;;;;;;;3.67;1.85;;;;;;;8.98;69.12;95893.55;1748652;81;21378;-81
2022/01/03 04:02:00;;;;;;;3.33;1.90;;;;;;;9.00;69.08;95886.39;1745512;81;21007;-82
2022/01/03 04:04:26;;;;;;;4.08;1.80;;;;;;;8.99;69.01;95880.90;1746599;81;21063;-81
2022/01/03 04:06:52;;;;;;;2.55;1.82;;;;;;;9.01;69.01;95878.13;1737059;81;21019;-81
2022/01/03 04:09:18;;;;;;;2.35;1.85;;;;;;;8.99;69.01;95875.72;1741745;81;21019;-81
2022/01/03 04:11:43;;;;;;;3.30;1.57;;;;;;;8.99;69.09;95880.09;1739227;81;21056;-81
2022/01/03 04:14:09;;;;;;;3.87;1.50;;;;;;;8.98;69.08;95880.59;1742250;81;21434;-81
2022/01/03 04:16:35;;;;;;;3.90;1.85;;;;;;;8.97;68.97;95885.95;1741249;81;21023;-82
2022/01/03 04:19:00;;;;;;;3.72;1.98;;;;;;;8.98;69.07;95875.41;1743150;81;20975;-81
2022/01/03 04:21:26;;;;;;;2.90;1.82;;;;;;;9.02;69.06;95871.95;1743623;81;21040;-82
2022/01/03 04:23:53;;;;;;;4.30;2.15;;;;;;;9.04;69.00;95869.97;1746206;81;21161;-81
2022/01/03 04:26:19;;;;;;;3.00;1.90;;;;;;;9.06;69.00;95869.29;1743325;81;21016;-81
2022/01/03 04:28:45;;;;;;;3.58;1.70;;;;;;;9.07;69.13;95872.19;1738241;81;21032;-81
2022/01/03 04:31:11;;;;;;;3.02;2.00;;;;;;;9.07;69.12;95859.73;1745311;81;21026;-82
2022/01/03 04:33:36;;;;;;;5.20;1.70;;;;;;;9.05;69.25;95860.41;1741184;81;21014;-81
2022/01/03 04:36:04;;;;;;;4.00;1.80;;;;;;;9.04;69.07;95853.13;1744162;81;21057;-82
2022/01/03 04:38:30;;;;;;;3.08;2.42;;;;;;;9.04;69.29;95857.02;1737534;81;21425;-81
2022/01/03 04:40:56;;;;;;;4.10;1.98;;;;;;;9.05;69.36;95861.70;1747997;81;21007;-81
2022/01/03 04:43:22;;;;;;;5.15;2.15;;;;;;;9.07;69.34;95859.73;1744032;81;21019;-81
2022/01/03 04:45:49;;;;;;;2.85;1.60;;;;;;;9.09;69.27;95864.23;1742312;81;22372;-81
2022/01/03 04:48:15;;;;;;;3.08;2.15;;;;;;;9.11;69.22;95858.36;1751010;81;21020;-82
2022/01/03 04:50:41;;;;;;;3.90;1.87;;;;;;;9.12;69.11;95838.77;1745780;81;22172;-82
2022/01/03 04:53:06;;;;;;;2.17;1.37;;;;;;;9.12;69.28;95836.67;1744720;81;21098;-81
2022/01/03 04:55:32;;;;;;;4.60;1.67;;;;;;;9.10;69.14;95834.23;1743004;81;21086;-81
2022/01/03 04:57:58;;;;;;;4.10;1.90;;;;;;;9.10;69.25;95853.67;1745607;81;21493;-81
2022/01/03 05:00:24;;;;;;;3.45;1.67;;;;;;;9.09;69.14;95849.48;1709845;81;21061;-82
2022/01/03 05:02:50;;;;;;;4.10;1.70;;;;;;;9.08;69.02;95830.23;1751667;81;21127;-82
2022/01/03 05:05:16;;;;;;;3.45;1.70;;;;;;;9.08;69.15;95834.92;1743260;81;21007;-82
2022/01/03 05:07:41;;;;;;;2.33;1.92;;;;;;;9.11;69.10;95831.15;1740813;81;21093;-82
2022/01/03 05:10:08;;;;;;;2.75;1.47;;;;;;;9.14;68.80;95819.94;1741694;81;21297;-81
2022/01/03 05:12:34;;;;;;;2.87;1.60;;;;;;;9.17;69.05;95823.45;1744120;81;21386;-82
2022/01/03 05:15:00;;;;;;;3.05;1.50;;;;;;;9.17;69.06;95813.58;1744176;81;21051;-81
2022/01/03 05:17:25;;;;;;;2.98;1.67;;;;;;;9.17;69.01;95810.98;1748811;81;20998;-81
2022/01/03 05:19:51;;;;;;;5.33;1.60;;;;;;;9.17;69.11;95814.88;1747753;81;21467;-81
2022/01/03 05:22:17;;;;;;;3.33;1.40;;;;;;;9.15;69.14;95794.82;1742364;81;21036;-81
2022/01/03 05:24:43;;;;;;;4.35;1.98;;;;;;;9.15;69.30;95805.19;1741079;81;21052;-81
2022/01/03 05:27:08;;;;;;;3.40;1.42;;;;;;;9.12;69.30;95804.27;1748400;81;21059;-81
2022/01/03 05:29:34;;;;;;;3.25;1.60;;;;;;;9.14;69.27;95797.11;1737435;81;21418;-81
2022/01/03 05:32:00;;;;;;;3.10;1.72;;;;;;;9.16;69.17;95789.95;1740483;81;21030;-81
2022/01/03 05:34:26;;;;;;;2.85;1.90;;;;;;;9.20;69.04;95811.41;1745005;81;20991;-81
2022/01/03 05:36:52;;;;;;;3.77;1.70;;;;;;;9.21;70.27;95805.23;1740844;81;21426;-81
2022/01/03 05:39:17;;;;;;;4.55;2.25;;;;;;;9.17;70.37;95795.44;1714628;81;21027;-81
2022/01/03 05:41:43;;;;;;;4.20;1.62;;;;;;;9.13;70.57;95791.63;1739445;81;21326;-82
2022/01/03 05:44:09;;;;;;;3.92;1.87;;;;;;;9.10;70.61;95804.43;1735375;81;20956;-81
2022/01/03 05:46:34;;;;;;;5.05;1.55;;;;;;;9.07;70.60;95791.05;1743452;81;20936;-81
2022/01/03 05:49:00;;;;;;;3.50;1.55;;;;;;;9.06;70.53;95796.73;1736574;81;20937;-81
2022/01/03 05:51:26;;;;;;;2.35;1.42;;;;;;;9.10;70.62;95788.08;1744312;81;20955;-81
2022/01/03 05:53:53;;;;;;;3.33;1.52;;;;;;;9.11;70.61;95786.63;1744303;81;21054;-82
2022/01/03 05:56:19;;;;;;;3.15;1.40;;;;;;;9.12;70.55;95784.84;1741492;81;21351;-82
2022/01/03 05:58:45;;;;;;;4.72;1.65;;;;;;;9.13;70.51;95789.83;1708596;83;21155;-82
2022/01/03 06:01:11;;;;;;;3.47;1.42;;;;;;;9.14;70.70;95784.15;1746293;81;21433;-81
2022/01/03 06:03:39;;;;;;;2.83;1.40;;;;;;;9.13;70.54;95780.75;1742814;81;21007;-81
2022/01/03 06:08:30;;;;;;;3.70;1.50;;;;;;;9.17;70.56;95801.91;1744933;81;21027;-81
2022/01/03 06:10:56;;;;;;;2.72;1.35;;;;;;;9.18;70.74;95781.48;1745468;81;21098;-81
2022/01/03 06:13:22;;;;;;;4.28;1.45;;;;;;;9.20;71.36;95788.58;1746075;81;22206;-81
2022/01/03 06:15:48;;;;;;;3.20;1.40;;;;;;;9.19;71.69;95802.53;1749295;81;21070;-82
2022/01/03 06:18:14;;;;;;;2.80;1.62;;;;;;;9.14;72.41;95782.85;1748486;81;21101;-81
2022/01/03 06:20:42;;;;;;;3.85;1.60;;;;;;;9.06;72.69;95799.31;1736936;81;21014;-81
2022/01/03 06:23:09;;;;;;;3.50;1.60;;;;;;;9.00;72.90;95796.19;1743123;81;21355;-81
2022/01/03 06:25:35;;;;;;;3.35;1.50;;;;;;;8.94;73.95;95796.91;1740689;81;21050;-81
2022/01/03 06:28:01;;;;;;;3.05;1.50;;;;;;;8.84;75.01;95796.44;1741928;81;21045;-82
2022/01/03 06:30:26;;;;;;;2.72;1.45;;;;;;;8.76;75.13;95780.50;1750247;81;21367;-81
2022/01/03 06:32:52;;;;;;;4.12;1.32;;;;;;;8.70;76.23;95787.73;1746875;81;21062;-81
2022/01/03 06:35:18;;;;;;;4.62;1.60;;;;;;;8.66;75.79;95776.94;1739836;81;20991;-81
2022/01/03 06:37:44;;;;;;;3.22;1.87;;;;;;;8.63;76.13;95778.61;1740127;81;20990;-81
2022/01/03 06:40:11;;;;;;;3.47;1.80;;;;;;;8.60;76.08;95768.59;1744572;81;21087;-82
2022/01/03 06:42:36;;;;;;;2.95;1.67;;;;;;;8.60;75.90;95784.63;1746028;81;20963;-81
2022/01/03 06:45:03;;;;;;;3.45;1.50;;;;;;;8.57;76.00;95781.91;1744218;81;21338;-81
2022/01/03 06:47:28;;;;;;;3.80;1.80;;;;;;;8.55;76.51;95789.56;1742831;81;21031;-81
2022/01/03 06:49:54;;;;;;;4.20;1.80;;;;;;;8.53;76.16;95802.69;1747417;81;21022;-82
2022/01/03 06:52:20;;;;;;;2.55;1.50;;;;;;;8.56;76.01;95790.67;1740027;81;21023;-82
2022/01/03 06:54:46;;;;;;;3.17;1.47;;;;;;;8.57;75.77;95793.56;1746099;81;21354;-82
2022/01/03 06:57:11;;;;;;;3.58;1.55;;;;;;;8.57;75.34;95815.58;1743053;81;20983;-82
2022/01/03 06:59:37;;;;;;;2.92;1.77;;;;;;;8.59;75.43;95797.27;1746599;81;20991;-81
2022/01/03 07:02:04;;;;;;;5.65;2.50;;;;;;;8.62;75.32;95815.85;1748116;81;21030;-82
2022/01/03 07:04:30;;;;;;;4.30;1.95;;;;;;;8.65;75.41;95827.14;1747127;81;21015;-82
2022/01/03 07:06:56;;;;;;;5.72;2.60;;;;;;;8.67;75.20;95808.82;1743735;81;20968;-82
2022/01/03 07:09:21;;;;;;;4.80;2.50;;;;;;;8.69;74.91;95813.32;1741408;81;21382;-82
2022/01/03 07:11:48;;;;;;;8.40;4.25;;;;;;;8.68;75.04;95829.35;1747091;81;21098;-82
2022/01/03 07:19:35;;;;;;;6.95;2.90;;;;;;;8.61;76.30;95839.31;1741973;81;21003;-82
2022/01/03 07:22:04;;;;;;;3.67;1.80;;;;;;;8.57;76.26;95825.94;1712627;81;21007;-81
2022/01/03 07:24:32;;;;;;;5.30;3.17;;;;;;;8.57;76.02;95838.88;1746041;81;21163;-82
2022/01/03 07:27:01;;;;;;;6.85;3.55;;;;;;;8.53;76.05;95832.47;1743015;81;21087;-82
2022/01/03 07:29:27;;;;;;;4.17;2.75;;;;;;;8.49;76.08;95845.48;1742998;81;21150;-82
2022/01/03 07:31:52;;;;;;;5.95;4.00;;;;;;;8.48;76.10;95851.64;1745070;81;21109;-82
2022/01/03 07:34:18;;;;;;;5.97;2.83;;;;;;;8.46;76.23;95859.25;1735877;81;21035;-82
2022/01/03 07:36:45;;;;;;;7.50;5.10;;;;;;;8.45;76.08;95851.17;1741166;81;21408;-82
2022/01/03 07:39:12;;;;;;;5.40;2.90;;;;;;;8.45;75.46;95857.65;1741060;81;21017;-81
2022/01/03 07:41:37;;;;;;;17.45;9.65;;;;;;;8.48;75.46;95863.30;1732105;81;21517;-82
2022/01/03 07:44:04;;;;;;;8.80;5.05;;;;;;;8.46;75.23;95870.44;1738863;81;21069;-82
2022/01/03 07:46:30;;;;;;;8.30;6.03;;;;;;;8.45;75.37;95874.48;1682218;84;20995;-82
2022/01/03 07:48:56;;;;;;;6.72;3.87;;;;;;;8.42;75.28;95884.22;1733369;81;21039;-82
2022/01/03 07:51:21;;;;;;;3.60;2.37;;;;;;;8.42;75.22;95888.09;1738392;81;21043;-82
2022/01/03 07:53:47;;;;;;;3.20;2.58;;;;;;;8.43;75.23;95892.78;1738898;81;20979;-82
2022/01/03 07:56:13;;;;;;;3.33;2.25;;;;;;;8.43;74.93;95887.61;1748088;81;21847;-82
2022/01/03 07:58:39;;;;;;;4.00;2.00;;;;;;;8.44;75.47;95877.56;1735704;81;21028;-82
2022/01/03 08:01:04;;;;;;;2.65;1.52;;;;;;;8.41;75.11;95885.20;1738494;81;21033;-82
2022/01/03 08:03:31;;;;;;;2.47;1.70;;;;;;;8.38;75.07;95901.09;1734386;81;21493;-82
2022/01/03 08:05:56;;;;;;;4.45;3.17;;;;;;;8.36;75.08;95892.71;1733017;81;21465;-81
2022/01/03 08:08:23;;;;;;;2.10;1.40;;;;;;;8.36;74.91;95902.27;1733217;81;20964;-81
2022/01/03 08:10:49;;;;;;;5.28;4.78;;;;;;;8.37;74.92;95893.52;1738045;81;21059;-82
2022/01/03 08:13:15;;;;;;;2.80;1.60;;;;;;;8.39;74.62;95902.70;1731042;81;21482;-82
2022/01/03 08:15:41;;;;;;;4.50;2.70;;;;;;;8.41;74.97;95905.11;1733883;81;21020;-82
2022/01/03 08:18:07;;;;;;;3.17;1.92;;;;;;;8.40;75.04;95908.19;1741599;81;21099;-82
2022/01/03 08:20:33;;;;;;;2.45;1.47;;;;;;;8.39;74.98;95905.29;1720459;81;21442;-82
2022/01/03 08:22:59;;;;;;;2.58;2.33;;;;;;;8.37;74.83;95907.27;1733998;81;21035;-82
2022/01/03 08:25:24;;;;;;;2.80;1.52;;;;;;;8.36;74.98;95912.12;1717399;81;21027;-82
2022/01/03 08:27:50;;;;;;;2.33;1.20;;;;;;;8.38;75.02;95908.06;1737329;81;21493;-82
2022/01/03 08:30:16;;;;;;;3.27;1.50;;;;;;;8.39;74.94;95910.47;1733459;81;21355;-83
2022/01/03 08:32:42;;;;;;;2.87;1.85;;;;;;;8.37;75.20;95903.38;1733765;81;20967;-82
2022/01/03 08:35:08;;;;;;;2.60;1.92;;;;;;;8.35;75.28;95914.41;1736925;81;21241;-81
2022/01/03 08:37:34;;;;;;;2.92;1.40;;;;;;;8.32;75.41;95901.80;1731256;81;21007;-82
2022/01/03 08:40:04;;;;;;;2.20;1.30;;;;;;;8.31;75.44;95914.92;1731396;81;21008;-81
2022/01/03 08:42:36;;;;;;;2.87;1.45;;;;;;;8.33;75.84;95915.54;1731951;81;20977;-82
2022/01/03 08:45:03;;;;;;;2.62;1.77;;;;;;;8.33;75.69;95918.94;1738163;81;21446;-81
2022/01/03 08:47:29;;;;;;;2.55;1.50;;;;;;;8.36;75.88;95923.78;1732307;81;21013;-82
2022/01/03 08:49:55;;;;;;;2.67;1.20;;;;;;;8.37;76.38;95920.20;1738577;81;21039;-79
2022/01/03 08:52:20;;;;;;;8.18;6.67;;;;;;;8.35;75.98;95916.99;1735873;81;21085;-79
2022/01/03 08:54:46;;;;;;;5.35;4.40;;;;;;;8.36;76.37;95925.56;1733835;81;21453;-78
2022/01/03 08:57:12;;;;;;;5.53;5.03;;;;;;;8.38;76.40;95933.95;1737797;81;21054;-79
2022/01/03 08:59:40;;;;;;;2.72;2.15;;;;;;;8.39;76.40;95931.18;1741065;81;21060;-79
2022/01/03 09:02:06;;;;;;;3.02;1.80;;;;;;;8.45;76.64;95923.67;1745830;81;21071;-79
2022/01/03 09:04:32;;;;;;;2.50;1.62;;;;;;;8.48;76.60;95919.45;1744967;81;21090;-79
2022/01/03 09:06:59;;;;;;;2.90;2.30;;;;;;;8.48;76.86;95917.67;1742359;81;21133;-79
2022/01/03 09:09:27;;;;;;;2.02;1.12;;;;;;;8.46;76.69;95920.93;1743229;81;20948;-79
2022/01/03 09:11:53;;;;;;;6.00;4.60;;;;;;;8.46;76.85;95915.75;1739372;81;21036;-79
2022/01/03 09:14:19;;;;;;;2.50;1.77;;;;;;;8.49;76.55;95921.86;1739164;81;22188;-79
2022/01/03 09:16:45;;;;;;;4.22;2.58;;;;;;;8.53;76.40;95916.63;1742777;81;20999;-79
2022/01/03 09:19:11;;;;;;;3.58;2.10;;;;;;;8.57;76.51;95923.54;1742642;81;21107;-78
2022/01/03 09:21:36;;;;;;;4.28;3.02;;;;;;;8.58;76.25;95917.38;1743550;81;21036;-79
2022/01/03 09:29:20;;;;;;;2.30;1.47;;;;;;;8.64;75.59;95918.77;1746811;81;21034;-79
2022/01/03 09:31:45;;;;;;;9.25;5.40;;;;;;;8.66;75.79;95909.03;1741194;80;20940;-81
2022/01/03 09:34:11;;;;;;;8.28;5.20;;;;;;;8.65;75.63;95913.90;1745517;81;21358;-81
2022/01/03 09:36:37;;;;;;;4.35;2.42;;;;;;;8.68;75.93;95906.25;1739876;81;20994;-81
2022/01/03 09:39:04;;;;;;;2.05;1.30;;;;;;;8.70;75.90;95912.05;1744466;81;21018;-81
2022/01/03 09:41:30;;;;;;;4.47;2.35;;;;;;;8.71;76.06;95911.87;1744691;81;21389;-81
2022/01/03 09:44:01;;;;;;;1.37;1.10;;;;;;;8.73;75.92;95911.19;1751197;81;21035;-81
2022/01/03 09:46:34;;;;;;;2.33;1.00;;;;;;;8.77;75.63;95905.15;1741258;81;21019;-81
2022/01/03 09:49:00;;;;;;;3.35;2.55;;;;;;;8.83;75.54;95895.86;1743869;81;21385;-81
2022/01/03 09:51:28;;;;;;;2.22;1.42;;;;;;;8.87;75.54;95904.88;1742114;81;21049;-81
2022/01/03 09:54:00;;;;;;;3.67;1.95;;;;;;;8.89;75.34;95899.02;1740284;81;21034;-81
2022/01/03 09:56:27;;;;;;;1.87;1.60;;;;;;;8.89;75.15;95898.52;1747506;81;21040;-81
2022/01/03 09:58:53;;;;;;;3.08;2.00;;;;;;;8.89;74.44;95898.52;1740822;81;20987;-83
2022/01/03 10:01:19;;;;;;;3.35;1.40;;;;;;;8.86;74.19;95905.37;1741395;81;20964;-81
2022/01/03 10:03:47;;;;;;;3.65;2.40;;;;;;;8.85;74.23;95892.10;1742553;81;20989;-81
2022/01/03 10:06:12;;;;;;;2.35;1.50;;;;;;;8.90;74.17;95891.55;1746207;81;21289;-81
2022/01/03 10:08:38;;;;;;;2.98;2.33;;;;;;;8.93;74.09;95885.99;1740584;81;20940;-81
2022/01/03 10:11:04;;;;;;;2.90;1.50;;;;;;;8.93;73.99;95898.45;1747964;81;20983;-81
2022/01/03 10:13:30;;;;;;;5.00;2.02;;;;;;;8.94;73.51;95903.95;1745927;81;21054;-81
2022/01/03 10:15:55;;;;;;;6.47;3.35;;;;;;;8.91;73.57;95898.33;1744912;81;21013;-81
2022/01/03 10:18:21;;;;;;;7.20;3.33;;;;;;;8.87;73.26;95903.08;1741489;81;20970;-81
2022/01/03 10:20:47;;;;;;;5.47;3.75;;;;;;;8.88;73.73;95895.62;1714439;81;20967;-81
2022/01/03 10:23:15;;;;;;;5.12;3.30;;;;;;;8.91;73.56;95902.22;1746173;81;20952;-82
2022/01/03 10:25:43;;;;;;;3.52;1.90;;;;;;;8.93;73.35;95888.58;1744911;80;21150;-81
2022/01/03 10:28:09;;;;;;;7.97;4.60;;;;;;;8.90;73.16;95893.64;1739183;81;21115;-82
2022/01/03 10:30:45;;;;;;;4.97;4.40;;;;;;;8.89;73.22;95886.86;1715660;81;21055;-81
2022/01/03 10:33:21;;;;;;;3.87;2.40;;;;;;;8.91;73.66;95869.83;1745364;81;21144;-81
2022/01/03 10:35:52;;;;;;;8.43;6.05;;;;;;;8.84;73.96;95878.84;1751305;81;21379;-81
2022/01/03 10:38:33;;;;;;;4.37;3.00;;;;;;;8.83;74.15;95877.23;1743483;81;20984;-81
2022/01/03 10:41:17;;;;;;;5.37;3.27;;;;;;;8.85;73.96;95875.76;1734622;81;20968;-82
2022/01/03 10:43:45;;;;;;;4.45;1.40;;;;;;;8.90;74.17;95863.84;1738000;81;20976;-81
2022/01/03 10:46:23;;;;;;;4.58;3.10;;;;;;;8.94;73.69;95872.85;1743289;81;20986;-82
2022/01/03 10:48:50;;;;;;;5.42;2.72;;;;;;;8.94;73.67;95861.69;1738171;81;21071;-82
2022/01/03 10:51:25;;;;;;;1.87;1.07;;;;;;;8.94;73.43;95859.09;1746375;81;20940;-82
2022/01/03 10:53:53;;;;;;;2.90;1.60;;;;;;;8.92;72.96;95864.95;1739259;81;21008;-82
2022/01/03 10:56:33;;;;;;;5.22;2.92;;;;;;;8.91;72.33;95860.27;1744452;81;20992;-82
2022/01/03 10:59:30;;;;;;;6.67;4.03;;;;;;;8.98;72.91;95857.77;1742874;81;21022;-82
2022/01/03 11:02:06;;;;;;;4.50;3.07;;;;;;;9.02;71.98;95853.31;1733015;81;21288;-82
2022/01/03 11:13:18;;;;;;;7.45;4.37;;;;;;;9.46;71.54;95855.41;1739084;81;20992;-82
2022/01/03 11:16:05;;;;;;;6.53;4.62;;;;;;;9.51;71.48;95856.94;1734360;81;21066;-82
2022/01/03 11:18:40;;;;;;;5.80;3.80;;;;;;;9.55;71.50;95864.64;1740546;81;21467;-82
2022/01/03 11:21:17;;;;;;;4.35;2.98;;;;;;;9.49;71.31;95855.83;1740604;81;21006;-82
2022/01/03 11:23:50;;;;;;;5.20;2.55;;;;;;;9.36;71.08;95862.20;1730954;81;21036;-82
2022/01/03 11:26:19;;;;;;;3.05;2.10;;;;;;;9.36;71.52;95840.16;1737767;81;21032;-82
2022/01/03 11:28:45;;;;;;;3.90;2.35;;;;;;;9.39;70.79;95851.94;1724238;81;20945;-81
2022/01/03 11:31:14;;;;;;;3.75;2.20;;;;;;;9.38;71.32;95848.55;1736410;81;21028;-82
2022/01/03 11:33:40;;;;;;;5.25;2.62;;;;;;;9.32;71.38;95858.38;1729325;81;20981;-82
2022/01/03 11:36:06;;;;;;;5.03;2.62;;;;;;;9.18;72.64;95872.20;1730962;81;21435;-82
2022/01/03 11:38:36;;;;;;;2.30;1.50;;;;;;;8.99;73.97;95882.69;1734238;81;20984;-81
2022/01/03 11:41:04;;;;;;;1.82;1.12;;;;;;;8.77;75.13;95909.53;1736835;81;21079;-82
2022/01/03 11:43:33;;;;;;;2.85;1.50;;;;;;;8.43;75.31;95962.69;1738065;81;21088;-82
2022/01/03 11:45:59;;;;;;;4.53;2.52;;;;;;;8.10;75.47;95930.64;1735289;81;21060;-82
2022/01/03 11:48:26;;;;;;;5.15;2.98;;;;;;;7.95;77.24;95918.66;1739557;81;21080;-82
2022/01/03 11:51:02;;;;;;;5.33;3.40;;;;;;;7.84;76.34;95908.27;1737381;81;21056;-82
2022/01/03 11:53:27;;;;;;;2.85;2.10;;;;;;;7.72;76.42;95898.84;1737116;81;21027;-81
2022/01/03 11:55:56;;;;;;;3.77;2.50;;;;;;;7.71;76.07;95897.72;1733223;81;21047;-82
2022/01/03 12:04:14;;;;;;;6.37;3.20;;;;;;;7.89;76.82;95874.91;1734518;81;21341;-81
2022/01/03 12:06:41;;;;;;;5.00;3.12;;;;;;;7.99;77.19;95875.95;1734100;81;21015;-82
2022/01/03 12:09:13;;;;;;;4.35;2.47;;;;;;;8.03;76.96;95874.61;1737324;81;21296;-81
2022/01/03 12:11:46;;;;;;;8.80;5.03;;;;;;;8.07;76.96;95881.83;1739007;81;20972;-82
2022/01/03 12:14:14;;;;;;;6.80;4.60;;;;;;;8.12;77.18;95881.29;1729164;81;22245;-80